createdAt,value
2023-01-26T00:01:44.087Z,2.60
2023-01-26T00:04:12.472Z,2.70
2023-01-26T00:06:40.051Z,2.70
2023-01-26T00:09:11.363Z,2.70
2023-01-26T00:11:39.414Z,2.80
2023-01-26T00:14:06.631Z,2.80
2023-01-26T00:16:33.987Z,2.80
2023-01-26T00:19:02.079Z,2.80
2023-01-26T00:21:30.381Z,2.90
2023-01-26T00:23:58.452Z,2.80
2023-01-26T00:26:27.894Z,2.80
2023-01-26T00:28:55.215Z,2.90
2023-01-26T00:31:25.809Z,3.00
2023-01-26T00:33:55.050Z,3.00
2023-01-26T00:36:22.557Z,3.00
2023-01-26T00:38:49.754Z,2.90
2023-01-26T00:41:36.128Z,2.90
2023-01-26T00:44:03.511Z,2.70
2023-01-26T00:46:31.025Z,2.60
2023-01-26T00:49:00.643Z,2.60
2023-01-26T00:51:28.487Z,2.60
2023-01-26T00:53:56.980Z,2.80
2023-01-26T00:56:28.210Z,2.80
2023-01-26T00:58:55.580Z,2.80
2023-01-26T01:01:23.047Z,2.80
2023-01-26T01:03:52.111Z,2.90
2023-01-26T01:06:19.757Z,2.90
2023-01-26T01:08:47.034Z,2.90
2023-01-26T01:11:14.709Z,2.80
2023-01-26T01:13:41.955Z,2.80
2023-01-26T01:16:12.772Z,2.80
2023-01-26T01:18:40.047Z,2.80
2023-01-26T01:21:12.775Z,2.80
2023-01-26T01:23:40.258Z,2.80
2023-01-26T01:31:47.857Z,2.70
2023-01-26T01:34:15.484Z,2.80
2023-01-26T01:36:42.918Z,2.70
2023-01-26T01:39:10.981Z,2.80
2023-01-26T01:41:38.375Z,2.80
2023-01-26T01:44:18.920Z,2.70
2023-01-26T01:46:56.362Z,2.70
2023-01-26T01:49:49.783Z,2.80
2023-01-26T01:52:30.883Z,2.70
2023-01-26T02:06:44.049Z,2.80
2023-01-26T02:09:34.760Z,2.90
2023-01-26T02:12:05.875Z,2.80
2023-01-26T02:14:33.983Z,2.80
2023-01-26T02:17:02.546Z,2.80
2023-01-26T02:19:51.586Z,2.80
2023-01-26T02:22:32.378Z,2.80
2023-01-26T02:25:07.104Z,2.80
2023-01-26T02:27:34.549Z,2.80
2023-01-26T02:30:04.108Z,2.90
2023-01-26T02:32:31.477Z,2.80
2023-01-26T02:34:59.917Z,2.80
2023-01-26T02:37:27.480Z,2.80
2023-01-26T02:40:02.436Z,2.80
2023-01-26T02:42:41.820Z,2.80
2023-01-26T02:45:12.537Z,2.90
2023-01-26T02:47:40.584Z,2.80
2023-01-26T02:50:10.563Z,2.80
2023-01-26T02:52:38.764Z,2.80
2023-01-26T02:55:23.172Z,2.80
2023-01-26T02:57:53.754Z,2.80
2023-01-26T03:00:25.473Z,2.80
2023-01-26T03:02:55.419Z,2.80
2023-01-26T03:05:25.731Z,2.80
2023-01-26T03:07:53.807Z,2.80
2023-01-26T03:10:25.288Z,2.90
2023-01-26T03:12:53.199Z,2.80
2023-01-26T03:15:39.285Z,2.80
2023-01-26T03:18:35.699Z,2.80
2023-01-26T03:21:28.225Z,2.80
2023-01-26T03:24:14.220Z,2.80
2023-01-26T03:27:02.446Z,2.80
2023-01-26T03:29:30.948Z,2.70
2023-01-26T03:32:00.760Z,2.70
2023-01-26T03:34:29.590Z,2.70
2023-01-26T03:36:58.110Z,2.70
2023-01-26T03:39:44.449Z,2.80
2023-01-26T03:42:30.704Z,2.80
2023-01-26T03:45:16.455Z,2.80
2023-01-26T03:48:02.775Z,2.80
2023-01-26T03:50:49.037Z,2.80
2023-01-26T03:53:40.552Z,2.80
2023-01-26T03:56:23.229Z,2.80
2023-01-26T03:58:57.512Z,2.80
2023-01-26T04:01:28.263Z,2.80
2023-01-26T04:04:17.859Z,2.80
2023-01-26T04:07:07.322Z,2.80
2023-01-26T04:09:37.170Z,2.80
2023-01-26T04:12:05.385Z,2.80
2023-01-26T04:14:54.609Z,2.80
2023-01-26T04:17:44.675Z,2.80
2023-01-26T04:20:32.192Z,2.80
2023-01-26T04:23:01.137Z,2.80
2023-01-26T04:25:29.017Z,2.80
2023-01-26T04:27:57.910Z,2.80
2023-01-26T04:30:25.452Z,2.80
2023-01-26T04:32:52.946Z,2.80
2023-01-26T04:35:20.502Z,2.80
2023-01-26T04:37:48.586Z,2.70
2023-01-26T04:40:16.213Z,2.70
2023-01-26T04:42:43.523Z,2.70
2023-01-26T04:45:11.594Z,2.70
2023-01-26T04:47:39.601Z,2.70
2023-01-26T04:50:07.707Z,2.70
2023-01-26T04:52:34.983Z,2.70
2023-01-26T04:55:02.399Z,2.80
2023-01-26T04:57:32.005Z,2.70
2023-01-26T05:00:01.728Z,2.70
2023-01-26T05:02:29.383Z,2.80
2023-01-26T05:04:57.278Z,2.70
2023-01-26T05:07:25.202Z,2.70
2023-01-26T05:09:53.710Z,2.70
2023-01-26T05:12:44.098Z,2.70
2023-01-26T05:15:47.533Z,2.70
2023-01-26T05:18:25.021Z,2.80
2023-01-26T05:21:15.807Z,2.70
2023-01-26T05:23:47.513Z,2.80
2023-01-26T05:27:13.351Z,2.70
2023-01-26T05:29:41.214Z,2.80
2023-01-26T05:32:08.669Z,2.80
2023-01-26T05:34:36.651Z,2.80
2023-01-26T05:37:05.555Z,2.80
2023-01-26T05:39:33.817Z,2.80
2023-01-26T05:42:02.470Z,2.80
2023-01-26T05:44:52.182Z,2.80
2023-01-26T05:47:20.677Z,2.80
2023-01-26T05:49:50.408Z,2.70
2023-01-26T05:52:22.604Z,2.70
2023-01-26T05:54:51.070Z,2.70
2023-01-26T05:57:19.123Z,2.70
2023-01-26T05:59:53.798Z,2.80
2023-01-26T06:02:21.678Z,2.70
2023-01-26T06:04:49.643Z,2.70
2023-01-26T06:07:17.101Z,2.70
2023-01-26T06:10:08.283Z,2.70
2023-01-26T06:12:43.191Z,2.70
2023-01-26T06:15:30.683Z,2.60
2023-01-26T06:18:01.666Z,2.70
2023-01-26T06:20:29.142Z,2.70
2023-01-26T06:23:01.536Z,2.70
2023-01-26T06:25:30.426Z,2.70
2023-01-26T06:27:59.120Z,2.70
2023-01-26T06:30:28.131Z,2.70
2023-01-26T06:33:00.749Z,2.70
2023-01-26T06:35:29.298Z,2.70
2023-01-26T06:38:00.148Z,2.70
2023-01-26T06:40:27.609Z,2.70
2023-01-26T06:42:55.172Z,2.70
2023-01-26T06:45:22.455Z,2.80
2023-01-26T06:47:52.071Z,2.80
2023-01-26T06:50:25.551Z,2.80
2023-01-26T06:52:58.853Z,2.80
2023-01-26T06:55:44.923Z,2.80
2023-01-26T06:58:28.659Z,2.80
2023-01-26T07:01:23.589Z,2.70
2023-01-26T07:03:52.401Z,2.70
2023-01-26T07:06:19.668Z,2.80
2023-01-26T07:08:47.613Z,2.70
2023-01-26T07:11:16.179Z,2.70
2023-01-26T07:13:43.839Z,2.80
2023-01-26T07:16:12.904Z,2.80
2023-01-26T07:18:40.408Z,2.80
2023-01-26T07:21:11.697Z,2.90
2023-01-26T07:23:39.373Z,2.90
2023-01-26T07:26:07.442Z,3.00
2023-01-26T07:28:35.512Z,3.00
2023-01-26T07:31:04.507Z,3.00
2023-01-26T07:33:34.408Z,3.10
2023-01-26T07:36:01.817Z,3.10
2023-01-26T07:38:29.430Z,3.20
2023-01-26T07:40:57.119Z,3.30
2023-01-26T07:43:24.868Z,3.40
2023-01-26T07:45:54.758Z,3.40
2023-01-26T07:48:24.319Z,3.40
2023-01-26T07:50:51.624Z,3.40
2023-01-26T07:53:19.508Z,3.50
2023-01-26T07:55:46.961Z,3.50
2023-01-26T07:58:14.459Z,3.60
2023-01-26T08:00:41.726Z,3.70
2023-01-26T08:03:09.195Z,3.60
2023-01-26T08:05:38.570Z,3.70
2023-01-26T08:08:06.567Z,3.60
2023-01-26T08:10:33.914Z,3.70
2023-01-26T08:13:01.857Z,3.90
2023-01-26T08:15:29.950Z,3.90
2023-01-26T08:17:57.431Z,3.90
2023-01-26T08:20:24.698Z,3.80
2023-01-26T08:22:52.228Z,3.90
2023-01-26T08:25:19.494Z,3.70
2023-01-26T08:27:47.135Z,3.80
2023-01-26T08:30:15.868Z,3.80
2023-01-26T08:32:43.386Z,3.80
2023-01-26T08:35:10.652Z,3.90
2023-01-26T08:37:38.288Z,3.80
2023-01-26T08:40:07.129Z,3.80
2023-01-26T08:42:34.678Z,3.60
2023-01-26T08:45:01.979Z,3.60
2023-01-26T08:47:30.345Z,3.60
2023-01-26T08:49:57.505Z,3.70
2023-01-26T08:52:24.978Z,3.80
2023-01-26T08:54:52.092Z,3.80
2023-01-26T08:57:19.556Z,3.90
2023-01-26T08:59:46.849Z,3.90
2023-01-26T09:02:14.407Z,3.80
2023-01-26T09:04:41.680Z,3.80
2023-01-26T09:07:10.213Z,3.80
2023-01-26T09:09:38.210Z,3.70
2023-01-26T09:12:06.059Z,3.70
2023-01-26T09:14:33.277Z,3.70
2023-01-26T09:17:00.801Z,3.70
2023-01-26T09:19:30.736Z,3.70
2023-01-26T09:21:58.539Z,3.60
2023-01-26T09:24:25.884Z,3.60
2023-01-26T09:26:53.544Z,3.40
2023-01-26T09:29:20.853Z,3.40
2023-01-26T09:31:48.441Z,3.40
2023-01-26T09:34:15.604Z,3.50
2023-01-26T09:36:43.148Z,3.60
2023-01-26T09:39:10.557Z,3.70
2023-01-26T09:42:05.377Z,3.80
2023-01-26T09:44:43.937Z,3.90
2023-01-26T09:47:30.446Z,4.10
2023-01-26T09:50:18.078Z,4.20
2023-01-26T09:52:52.918Z,4.40
2023-01-26T09:55:22.191Z,4.30
2023-01-26T09:57:50.807Z,4.30
2023-01-26T10:00:18.165Z,4.20
2023-01-26T10:03:25.184Z,4.10
2023-01-26T10:06:13.688Z,4.20
2023-01-26T10:09:07.718Z,4.20
2023-01-26T10:11:59.233Z,4.40
2023-01-26T10:14:45.384Z,4.40
2023-01-26T10:17:26.745Z,4.30
2023-01-26T10:20:09.661Z,4.40
2023-01-26T10:22:42.677Z,4.30
2023-01-26T10:25:26.269Z,4.30
2023-01-26T10:27:54.336Z,4.40
2023-01-26T10:30:22.440Z,4.50
2023-01-26T10:32:52.985Z,4.50
2023-01-26T10:35:23.568Z,4.50
2023-01-26T10:37:54.471Z,4.40
2023-01-26T10:40:21.874Z,4.30
2023-01-26T10:42:57.545Z,4.40
2023-01-26T10:45:31.334Z,4.30
2023-01-26T10:48:13.358Z,4.40
2023-01-26T10:50:40.809Z,4.50
2023-01-26T10:53:16.588Z,4.50
2023-01-26T10:55:44.116Z,4.50
2023-01-26T10:58:40.893Z,4.40
2023-01-26T11:01:18.766Z,4.40
2023-01-26T11:04:12.438Z,4.30
2023-01-26T11:06:40.089Z,4.30
2023-01-26T11:09:27.069Z,4.50
2023-01-26T11:12:00.663Z,4.40
2023-01-26T11:14:29.478Z,4.40
2023-01-26T11:17:27.305Z,4.40
2023-01-26T11:20:07.607Z,4.30
2023-01-26T11:22:48.377Z,4.30
2023-01-26T11:25:39.114Z,4.30
2023-01-26T11:28:09.397Z,4.30
2023-01-26T11:31:00.583Z,4.30
2023-01-26T11:34:06.317Z,4.40
2023-01-26T11:36:48.545Z,4.50
2023-01-26T11:39:22.095Z,4.50
2023-01-26T11:42:13.621Z,4.40
2023-01-26T11:44:54.578Z,4.50
2023-01-26T11:47:39.482Z,4.50
2023-01-26T11:50:25.653Z,4.40
2023-01-26T11:53:16.056Z,4.30
2023-01-26T11:55:51.198Z,4.40
2023-01-26T11:58:33.619Z,4.30
2023-01-26T12:01:29.053Z,4.20
2023-01-26T12:03:57.768Z,4.40
2023-01-26T12:06:40.758Z,4.30
2023-01-26T12:09:18.908Z,4.30
2023-01-26T12:11:59.210Z,4.30
2023-01-26T12:14:26.339Z,4.30
2023-01-26T12:16:55.208Z,4.30
2023-01-26T12:19:42.510Z,4.30
2023-01-26T12:22:19.705Z,4.40
2023-01-26T12:25:28.621Z,4.40
2023-01-26T12:28:13.066Z,4.30
2023-01-26T12:30:55.618Z,4.20
2023-01-26T12:33:23.993Z,4.10
2023-01-26T12:36:20.238Z,4.10
2023-01-26T12:39:12.603Z,4.10
2023-01-26T12:41:51.585Z,4.10
2023-01-26T12:44:41.925Z,4.10
2023-01-26T12:47:15.326Z,4.10
2023-01-26T12:49:48.791Z,4.10
2023-01-26T12:52:30.067Z,4.10
2023-01-26T12:55:05.091Z,4.10
2023-01-26T12:57:49.609Z,4.00
2023-01-26T13:00:20.045Z,4.00
2023-01-26T13:02:53.933Z,4.00
2023-01-26T13:06:22.547Z,4.00
2023-01-26T13:08:53.747Z,3.80
2023-01-26T13:11:42.319Z,3.90
2023-01-26T13:14:27.113Z,4.00
2023-01-26T13:16:55.249Z,4.10
2023-01-26T13:19:59.699Z,4.00
2023-01-26T13:22:29.765Z,4.00
2023-01-26T13:24:57.060Z,4.10
2023-01-26T13:27:39.597Z,4.00
2023-01-26T13:30:25.058Z,3.90
2023-01-26T13:33:08.854Z,3.90
2023-01-26T13:35:36.493Z,3.90
2023-01-26T13:38:41.258Z,4.00
2023-01-26T13:41:14.022Z,3.90
2023-01-26T13:43:52.697Z,3.90
2023-01-26T13:46:20.083Z,3.90
2023-01-26T13:48:52.466Z,3.80
2023-01-26T13:51:31.723Z,3.80
2023-01-26T13:54:12.246Z,3.80
2023-01-26T13:56:58.966Z,3.70
2023-01-26T13:59:26.513Z,3.80
2023-01-26T14:01:55.776Z,3.70
2023-01-26T14:04:31.119Z,3.60
2023-01-26T14:07:03.009Z,3.60
2023-01-26T14:09:41.134Z,3.60
2023-01-26T14:12:17.092Z,3.60
2023-01-26T14:14:48.140Z,3.60
2023-01-26T14:17:30.886Z,3.60
2023-01-26T14:20:00.185Z,3.50
2023-01-26T14:22:28.179Z,3.50
2023-01-26T14:24:56.092Z,3.40
2023-01-26T14:27:39.737Z,3.40
2023-01-26T14:30:27.674Z,3.30
2023-01-26T14:33:04.391Z,3.30
2023-01-26T14:35:32.525Z,3.20
2023-01-26T14:38:12.127Z,3.30
2023-01-26T14:40:53.211Z,3.30
2023-01-26T14:43:20.977Z,3.30
2023-01-26T14:46:08.036Z,3.20
2023-01-26T14:48:40.490Z,3.20
2023-01-26T14:51:16.748Z,3.20
2023-01-26T14:53:54.139Z,3.20
2023-01-26T14:56:33.827Z,3.20
2023-01-26T14:59:02.068Z,3.20
2023-01-26T15:01:29.874Z,3.10
2023-01-26T15:04:26.404Z,3.20
2023-01-26T15:06:53.912Z,3.20
2023-01-26T15:09:26.149Z,3.20
2023-01-26T15:12:17.069Z,3.00
2023-01-26T15:14:50.513Z,3.00
2023-01-26T15:17:42.083Z,3.10
2023-01-26T15:20:15.360Z,3.00
2023-01-26T15:22:50.482Z,2.90
2023-01-26T15:25:32.005Z,2.90
2023-01-26T15:28:00.820Z,2.80
2023-01-26T15:30:36.146Z,2.80
2023-01-26T15:33:03.977Z,2.90
2023-01-26T15:35:34.988Z,2.90
2023-01-26T15:38:05.726Z,2.90
2023-01-26T15:40:32.963Z,2.80
2023-01-26T15:43:16.000Z,2.80
2023-01-26T15:45:55.225Z,2.70
2023-01-26T15:48:26.915Z,2.70
2023-01-26T15:50:54.212Z,2.70
2023-01-26T15:53:22.646Z,2.60
2023-01-26T15:55:56.080Z,2.70
2023-01-26T15:58:24.511Z,2.60
2023-01-26T16:00:53.339Z,2.60
2023-01-26T16:03:22.420Z,2.50
2023-01-26T16:05:50.024Z,2.60
2023-01-26T16:08:18.903Z,2.70
2023-01-26T16:10:47.159Z,2.70
2023-01-26T16:13:17.965Z,2.70
2023-01-26T16:15:48.040Z,2.70
2023-01-26T16:18:15.612Z,2.70
2023-01-26T16:20:45.432Z,2.70
2023-01-26T16:23:31.943Z,2.70
2023-01-26T16:25:59.124Z,2.60
2023-01-26T16:28:26.599Z,2.60
2023-01-26T16:30:53.972Z,2.60
2023-01-26T16:33:21.598Z,2.60
2023-01-26T16:35:48.876Z,2.60
2023-01-26T16:38:17.067Z,2.60
2023-01-26T16:40:46.694Z,2.60
2023-01-26T16:43:25.776Z,2.60
2023-01-26T16:45:53.578Z,2.60
2023-01-26T16:48:22.642Z,2.60
2023-01-26T16:50:54.304Z,2.60
2023-01-26T16:53:30.733Z,2.60
2023-01-26T16:55:58.041Z,2.50
2023-01-26T16:58:30.539Z,2.40
2023-01-26T17:00:58.084Z,2.40
2023-01-26T17:03:25.547Z,2.40
2023-01-26T17:05:52.836Z,2.40
2023-01-26T17:08:20.432Z,2.50
2023-01-26T17:11:01.177Z,2.50
2023-01-26T17:13:29.824Z,2.60
2023-01-26T17:15:58.276Z,2.60
2023-01-26T17:18:25.960Z,2.70
2023-01-26T17:20:53.199Z,2.70
2023-01-26T17:23:20.823Z,2.60
2023-01-26T17:25:48.158Z,2.50
2023-01-26T17:28:15.951Z,2.50
2023-01-26T17:30:43.306Z,2.50
2023-01-26T17:33:11.039Z,2.50
2023-01-26T17:35:38.481Z,2.40
2023-01-26T17:38:05.903Z,2.40
2023-01-26T17:40:33.270Z,2.40
2023-01-26T17:43:00.785Z,2.40
2023-01-26T17:45:28.733Z,2.50
2023-01-26T17:47:56.302Z,2.50
2023-01-26T17:50:23.565Z,2.60
2023-01-26T17:52:50.983Z,2.50
2023-01-26T17:55:18.410Z,2.40
2023-01-26T17:57:45.832Z,2.50
2023-01-26T18:00:13.850Z,2.50
2023-01-26T18:02:41.361Z,2.50
2023-01-26T18:05:09.355Z,2.50
2023-01-26T18:07:36.991Z,2.40
2023-01-26T18:10:05.554Z,2.40
2023-01-26T18:12:33.301Z,2.40
2023-01-26T18:15:00.443Z,2.40
2023-01-26T18:17:28.068Z,2.40
2023-01-26T18:19:55.353Z,2.40
2023-01-26T18:22:22.804Z,2.40
2023-01-26T18:24:50.158Z,2.40
2023-01-26T18:27:17.606Z,2.40
2023-01-26T18:29:44.857Z,2.50
2023-01-26T18:32:12.297Z,2.40
2023-01-26T18:34:43.558Z,2.50
2023-01-26T18:37:11.162Z,2.40
2023-01-26T18:39:38.909Z,2.40
2023-01-26T18:42:06.503Z,2.40
2023-01-26T18:44:33.778Z,2.40
2023-01-26T18:47:01.277Z,2.40
2023-01-26T18:49:28.506Z,2.40
2023-01-26T18:51:56.013Z,2.40
2023-01-26T18:54:24.567Z,2.40
2023-01-26T18:56:52.185Z,2.40
2023-01-26T18:59:19.427Z,2.30
2023-01-26T19:01:46.858Z,2.40
2023-01-26T19:04:15.525Z,2.30
2023-01-26T19:06:44.711Z,2.40
2023-01-26T19:09:11.879Z,2.50
2023-01-26T19:11:39.708Z,2.40
2023-01-26T19:14:07.720Z,2.40
2023-01-26T19:16:36.074Z,2.40
2023-01-26T19:19:03.581Z,2.40
2023-01-26T19:21:33.670Z,2.40
2023-01-26T19:24:05.807Z,2.40
2023-01-26T19:26:34.179Z,2.40
2023-01-26T19:29:01.539Z,2.40
2023-01-26T19:31:29.516Z,2.40
2023-01-26T19:33:59.351Z,2.40
2023-01-26T19:36:29.275Z,2.40
2023-01-26T19:38:57.935Z,2.40
2023-01-26T19:41:25.701Z,2.40
2023-01-26T19:43:52.957Z,2.40
2023-01-26T19:46:20.844Z,2.20
2023-01-26T19:48:48.247Z,2.20
2023-01-26T19:51:19.135Z,2.20
2023-01-26T19:53:49.183Z,2.30
2023-01-26T19:56:25.171Z,2.30
2023-01-26T19:58:57.472Z,2.40
2023-01-26T20:01:26.135Z,2.30
2023-01-26T20:03:58.671Z,2.30
2023-01-26T20:06:29.118Z,2.30
2023-01-26T20:08:56.920Z,2.30
2023-01-26T20:11:26.685Z,2.40
2023-01-26T20:14:02.109Z,2.30
2023-01-26T20:16:30.760Z,2.30
2023-01-26T20:18:59.298Z,2.30
2023-01-26T20:21:28.223Z,2.30
2023-01-26T20:23:56.216Z,2.30
2023-01-26T20:26:26.225Z,2.30
2023-01-26T20:28:57.597Z,2.30
2023-01-26T20:31:27.801Z,2.30
2023-01-26T20:33:55.543Z,2.40
2023-01-26T20:36:26.023Z,2.40
2023-01-26T20:38:53.621Z,2.50
2023-01-26T20:41:24.675Z,2.40
2023-01-26T20:44:01.906Z,2.40
2023-01-26T20:46:33.122Z,2.40
2023-01-26T20:49:01.365Z,2.40
2023-01-26T20:51:33.556Z,2.40
2023-01-26T20:54:00.983Z,2.40
2023-01-26T20:56:28.719Z,2.40
2023-01-26T20:58:56.433Z,2.50
2023-01-26T21:01:25.020Z,2.50
2023-01-26T21:03:52.946Z,2.50
2023-01-26T21:06:21.839Z,2.50
2023-01-26T21:08:52.424Z,2.50
2023-01-26T21:11:21.097Z,2.50
2023-01-26T21:13:48.513Z,2.50
2023-01-26T21:16:17.143Z,2.50
2023-01-26T21:18:46.091Z,2.50
2023-01-26T21:21:17.600Z,2.50
2023-01-26T21:23:47.773Z,2.50
2023-01-26T21:26:22.353Z,2.50
2023-01-26T21:28:53.449Z,2.50
2023-01-26T21:31:22.921Z,2.50
2023-01-26T21:33:50.656Z,2.50
2023-01-26T21:36:20.873Z,2.50
2023-01-26T21:38:50.923Z,2.50
2023-01-26T21:41:40.226Z,2.50
2023-01-26T21:44:12.709Z,2.50
2023-01-26T21:46:40.277Z,2.60
2023-01-26T21:49:08.283Z,2.50
2023-01-26T21:51:54.382Z,2.50
2023-01-26T21:54:21.986Z,2.50
2023-01-26T21:56:49.703Z,2.60
2023-01-26T21:59:18.178Z,2.60
2023-01-26T22:01:56.901Z,2.50
2023-01-26T22:04:30.254Z,2.60
2023-01-26T22:06:58.342Z,2.50
2023-01-26T22:09:25.603Z,2.60
2023-01-26T22:11:53.134Z,2.50
2023-01-26T22:14:23.229Z,2.50
2023-01-26T22:16:50.854Z,2.50
2023-01-26T22:19:18.122Z,2.50
2023-01-26T22:21:45.668Z,2.50
2023-01-26T22:24:14.694Z,2.50
2023-01-26T22:26:42.493Z,2.50
2023-01-26T22:29:11.691Z,2.60
2023-01-26T22:31:39.602Z,2.60
2023-01-26T22:34:07.169Z,2.50
2023-01-26T22:36:34.820Z,2.60
2023-01-26T22:39:02.218Z,2.60
2023-01-26T22:41:30.622Z,2.60
2023-01-26T22:43:59.927Z,2.60
2023-01-26T22:46:29.399Z,2.60
2023-01-26T22:48:58.214Z,2.70
2023-01-26T22:51:30.944Z,2.70
2023-01-26T22:53:59.458Z,2.60
2023-01-26T22:56:27.672Z,2.60
2023-01-26T22:58:59.460Z,2.60
2023-01-26T23:01:32.684Z,2.60
2023-01-26T23:04:01.133Z,2.70
2023-01-26T23:06:29.323Z,2.70
2023-01-26T23:08:58.374Z,2.70
2023-01-26T23:11:28.353Z,2.70
2023-01-26T23:13:57.425Z,2.60
2023-01-26T23:16:25.817Z,2.60
2023-01-26T23:18:55.141Z,2.60
2023-01-26T23:21:22.578Z,2.60
2023-01-26T23:23:49.855Z,2.60
2023-01-26T23:26:17.523Z,2.70
2023-01-26T23:28:45.179Z,2.70
2023-01-26T23:31:14.998Z,2.60
2023-01-26T23:33:42.373Z,2.60
2023-01-26T23:36:12.637Z,2.60
2023-01-26T23:38:40.157Z,2.50
2023-01-26T23:41:10.771Z,2.40
2023-01-26T23:43:38.298Z,2.40
2023-01-26T23:46:08.029Z,2.20
2023-01-26T23:48:35.704Z,2.20
2023-01-26T23:51:05.995Z,2.20
2023-01-26T23:53:33.568Z,2.30
2023-01-26T23:56:06.272Z,2.20
2023-01-26T23:58:33.378Z,2.20
